Time;durP1;ratioP1;P1;durP2;ratioP2;P2;SDS_P1;SDS_P2;PMS_P1;PMS_P2;Temp;Humidity;BMP_temperature;BMP_pressure;BME280_temperature;BME280_humidity;BME280_pressure;Samples;Min_cycle;Max_cycle;Signal;HPM_P1;HPM_P2
2022/01/26 00:00:05;;;;;;;82.22;35.90;;;-2.40;99.90;;;;;;4986892;28;20698;-79
2022/01/26 00:08:00;;;;;;;83.10;29.15;;;-2.30;99.90;;;;;;5004331;28;20235;-79
2022/01/26 00:10:26;;;;;;;144.03;30.80;;;-2.30;99.90;;;;;;5003176;28;20257;-79
2022/01/26 00:12:51;;;;;;;169.20;32.23;;;-2.30;99.90;;;;;;5001529;28;20933;-79
2022/01/26 00:15:18;;;;;;;221.70;34.17;;;-2.40;99.90;;;;;;5002497;28;20229;-79
2022/01/26 00:17:44;;;;;;;237.60;33.42;;;-2.20;99.90;;;;;;4986228;28;20194;-79
2022/01/26 00:20:20;;;;;;;245.63;32.77;;;-2.40;99.90;;;;;;4986777;28;20236;-79
2022/01/26 00:25:35;;;;;;;167.87;28.27;;;-2.40;99.90;;;;;;4987387;28;20272;-78
2022/01/26 00:38:35;;;;;;;119.15;27.17;;;-2.70;99.90;;;;;;5003459;28;20284;-79
2022/01/26 00:41:05;;;;;;;134.23;27.60;;;-2.60;99.90;;;;;;5002042;28;20242;-79
2022/01/26 00:43:31;;;;;;;194.85;30.35;;;-2.60;99.90;;;;;;4986394;28;20189;-80
2022/01/26 00:45:58;;;;;;;216.00;28.15;;;-2.60;99.90;;;;;;4981976;28;20268;-79
2022/01/26 00:48:25;;;;;;;336.85;39.13;;;-2.70;99.90;;;;;;4981288;28;20194;-80
2022/01/26 00:50:53;;;;;;;231.40;33.88;;;-2.80;99.90;;;;;;5000446;28;20189;-79
2022/01/26 00:53:23;;;;;;;128.90;25.42;;;-2.70;99.90;;;;;;4996003;28;20206;-79
2022/01/26 00:55:49;;;;;;;277.08;29.58;;;-2.80;99.90;;;;;;4980379;28;20218;-80
2022/01/26 00:58:14;;;;;;;126.13;26.27;;;-2.90;99.90;;;;;;4982229;28;20194;-79
2022/01/26 01:00:40;;;;;;;252.63;33.60;;;-2.80;99.90;;;;;;5005393;28;20185;-79
2022/01/26 01:03:06;;;;;;;115.23;34.13;;;-2.90;99.90;;;;;;4987058;28;20425;-78
2022/01/26 01:05:59;;;;;;;112.47;30.30;;;-2.90;99.90;;;;;;4982879;28;20695;-78
2022/01/26 01:08:21;;;;;;;123.32;33.15;;;-2.90;99.90;;;;;;4996807;28;20206;-79
2022/01/26 01:10:48;;;;;;;96.25;30.40;;;-2.80;99.90;;;;;;4979328;28;20201;-80
2022/01/26 01:13:18;;;;;;;124.45;30.77;;;-2.90;99.90;;;;;;4994699;28;20205;-80
2022/01/26 01:15:45;;;;;;;93.45;28.42;;;-2.80;99.90;;;;;;4994197;28;20263;-80
2022/01/26 01:23:57;;;;;;;62.05;26.70;;;-3.10;99.90;;;;;;4999266;28;20586;-80
2022/01/26 01:31:52;;;;;;;48.38;24.23;;;-3.00;99.90;;;;;;4997712;28;20273;-79
2022/01/26 01:34:20;;;;;;;90.50;23.48;;;-3.00;99.90;;;;;;4995589;28;20578;-78
2022/01/26 01:36:50;;;;;;;52.20;23.60;;;-3.00;99.90;;;;;;4996616;28;20726;-77
2022/01/26 01:39:17;;;;;;;55.22;24.63;;;-3.10;99.90;;;;;;4979573;28;20278;-79
2022/01/26 01:41:44;;;;;;;62.72;23.20;;;-3.20;99.90;;;;;;4999164;28;20182;-79
2022/01/26 01:44:11;;;;;;;100.97;27.08;;;-3.20;99.90;;;;;;4999788;28;20193;-79
2022/01/26 01:46:38;;;;;;;41.28;22.88;;;-3.40;99.90;;;;;;5000589;28;20217;-79
2022/01/26 01:49:05;;;;;;;42.85;23.20;;;-3.40;99.90;;;;;;4999764;28;20368;-79
2022/01/26 01:51:36;;;;;;;38.45;22.27;;;-3.40;99.90;;;;;;4999003;28;20296;-79
2022/01/26 01:54:02;;;;;;;40.45;22.20;;;-3.40;99.90;;;;;;4999004;28;20197;-80
2022/01/26 01:56:28;;;;;;;43.22;23.48;;;-3.40;99.90;;;;;;4982950;28;20260;-78
2022/01/26 01:58:57;;;;;;;34.00;21.10;;;-3.40;99.90;;;;;;4998388;28;20289;-79
2022/01/26 02:01:23;;;;;;;35.28;20.83;;;-3.40;99.90;;;;;;4998415;28;20415;-78
2022/01/26 02:03:49;;;;;;;41.10;20.90;;;-3.40;99.90;;;;;;4980165;28;20217;-79
2022/01/26 02:06:15;;;;;;;40.40;22.53;;;-3.50;99.90;;;;;;4999917;28;20449;-79
2022/01/26 02:08:42;;;;;;;46.40;24.97;;;-3.50;99.90;;;;;;4968474;28;20193;-78
2022/01/26 02:11:10;;;;;;;38.13;20.90;;;-3.50;99.90;;;;;;4984976;28;20193;-80
2022/01/26 03:02:26;;;;;;;73.47;22.55;;;-3.30;99.90;;;;;;4995401;28;20189;-81
2022/01/26 03:04:55;;;;;;;72.03;23.65;;;-3.30;99.90;;;;;;4980131;28;20185;-81
2022/01/26 03:07:36;;;;;;;66.32;23.77;;;-3.30;99.90;;;;;;4962734;28;20209;-80
2022/01/26 03:10:08;;;;;;;141.25;25.33;;;-3.30;99.90;;;;;;5001439;28;20186;-79
2022/01/26 03:12:44;;;;;;;63.92;21.23;;;-3.40;99.90;;;;;;4984682;28;20193;-80
2022/01/26 03:15:18;;;;;;;50.08;22.20;;;-3.30;99.90;;;;;;4984078;28;20213;-79
2022/01/26 03:18:14;;;;;;;78.88;23.70;;;-3.30;99.90;;;;;;4989004;28;20189;-79
2022/01/26 03:20:32;;;;;;;62.88;21.35;;;-3.30;99.90;;;;;;5004429;28;20213;-79
2022/01/26 03:28:40;;;;;;;78.63;23.67;;;-3.20;99.90;;;;;;5001681;28;20258;-79
2022/01/26 03:34:12;;;;;;;45.10;24.45;;;-3.20;99.90;;;;;;4979734;28;20203;-80
2022/01/26 03:39:13;;;;;;;156.23;23.30;;;-3.20;99.90;;;;;;5001788;28;20264;-78
2022/01/26 03:41:45;;;;;;;134.35;22.80;;;-3.30;99.90;;;;;;5005264;28;20187;-78
2022/01/26 03:44:12;;;;;;;113.43;24.02;;;-3.30;99.90;;;;;;4990876;28;20277;-78
2022/01/26 03:46:38;;;;;;;76.80;22.92;;;-3.60;99.90;;;;;;4990539;28;20231;-81
2022/01/26 03:49:06;;;;;;;77.72;19.50;;;-3.60;99.90;;;;;;4997850;28;20185;-75
2022/01/26 03:51:32;;;;;;;137.60;27.38;;;-3.50;99.90;;;;;;4991297;28;20192;-76
2022/01/26 03:53:57;;;;;;;80.70;24.42;;;-3.50;99.90;;;;;;4990067;28;20222;-77
2022/01/26 03:56:24;;;;;;;83.70;23.15;;;-3.40;99.90;;;;;;4990869;28;20365;-78
2022/01/26 03:58:50;;;;;;;71.17;22.77;;;-3.40;99.90;;;;;;4992061;28;20262;-78
2022/01/26 04:01:16;;;;;;;68.87;24.80;;;-3.30;99.90;;;;;;4990559;28;20186;-77
2022/01/26 04:03:41;;;;;;;59.90;22.87;;;-3.40;99.90;;;;;;4989895;28;20368;-77
2022/01/26 04:06:07;;;;;;;74.10;23.90;;;-3.30;99.90;;;;;;4990582;28;20283;-77
2022/01/26 04:08:34;;;;;;;43.40;20.87;;;-3.20;99.90;;;;;;4991073;28;20213;-77
2022/01/26 04:14:07;;;;;;;148.85;21.58;;;-3.10;99.90;;;;;;4968750;28;20270;-77
2022/01/26 04:16:34;;;;;;;82.72;20.23;;;-3.20;99.90;;;;;;4982919;28;20733;-77
2022/01/26 04:19:00;;;;;;;190.23;21.63;;;-3.20;99.90;;;;;;4990785;28;20698;-77
2022/01/26 04:21:48;;;;;;;215.02;24.05;;;-3.40;99.90;;;;;;4991249;28;20652;-77
2022/01/26 04:27:04;;;;;;;44.07;18.87;;;-3.30;99.90;;;;;;4990833;28;20610;-77
2022/01/26 04:29:28;;;;;;;66.47;22.02;;;-3.20;99.90;;;;;;4991083;28;20800;-78
2022/01/26 04:31:54;;;;;;;40.13;20.20;;;-3.20;99.90;;;;;;4990742;28;20178;-78
2022/01/26 04:34:20;;;;;;;36.55;20.65;;;-3.20;99.90;;;;;;4992053;28;20216;-78
2022/01/26 04:36:53;;;;;;;60.25;18.40;;;-3.20;99.90;;;;;;4993534;28;20201;-79
2022/01/26 04:39:28;;;;;;;75.82;21.42;;;-3.20;99.90;;;;;;4993162;28;20278;-79
2022/01/26 04:41:59;;;;;;;63.35;20.73;;;-3.30;99.90;;;;;;4994705;28;20177;-79
2022/01/26 04:44:30;;;;;;;143.75;23.70;;;-3.20;99.90;;;;;;4993493;28;20629;-79
2022/01/26 04:46:56;;;;;;;81.57;20.67;;;-3.20;99.90;;;;;;4994181;28;20217;-79
2022/01/26 04:49:22;;;;;;;41.37;20.20;;;-3.30;99.90;;;;;;4978384;28;20619;-79
2022/01/26 04:51:47;;;;;;;72.07;21.13;;;-3.20;99.90;;;;;;4996322;28;20289;-78
2022/01/26 04:54:14;;;;;;;54.77;21.60;;;-3.20;99.90;;;;;;4977955;28;20229;-79
2022/01/26 04:56:40;;;;;;;54.40;23.08;;;-3.30;99.90;;;;;;4995490;28;20190;-79
2022/01/26 04:59:05;;;;;;;65.88;21.45;;;-3.30;99.90;;;;;;4995366;28;20639;-79
2022/01/26 05:01:31;;;;;;;49.77;21.47;;;-3.30;99.90;;;;;;4991409;28;20190;-76
2022/01/26 05:03:57;;;;;;;68.50;21.03;;;-3.30;99.90;;;;;;4990408;28;20182;-76
2022/01/26 05:06:22;;;;;;;50.33;20.60;;;-3.20;99.90;;;;;;4990357;28;20217;-76
2022/01/26 05:08:48;;;;;;;70.53;21.97;;;-3.30;99.90;;;;;;4989265;28;20182;-76
2022/01/26 05:11:20;;;;;;;43.57;19.23;;;-3.30;99.90;;;;;;4989182;28;20193;-76
2022/01/26 05:13:46;;;;;;;96.70;24.17;;;-3.20;99.90;;;;;;4989417;28;20181;-76
2022/01/26 05:16:12;;;;;;;47.63;22.30;;;-3.10;99.90;;;;;;4989297;28;20287;-76
2022/01/26 05:18:37;;;;;;;48.33;20.47;;;-3.00;99.90;;;;;;4989826;28;20640;-76
2022/01/26 05:21:03;;;;;;;56.73;21.77;;;-2.90;99.90;;;;;;4990685;28;20281;-76
2022/01/26 05:23:29;;;;;;;72.50;21.42;;;-2.90;99.90;;;;;;4989115;28;20225;-76
2022/01/26 05:25:55;;;;;;;40.30;20.17;;;-2.80;99.90;;;;;;4990396;28;20668;-76
2022/01/26 05:28:20;;;;;;;42.70;20.90;;;-2.80;99.90;;;;;;4989105;28;20282;-76
2022/01/26 05:30:46;;;;;;;48.53;22.87;;;-2.70;99.90;;;;;;4990136;28;20185;-76
2022/01/26 05:33:12;;;;;;;52.70;23.17;;;-2.70;99.90;;;;;;4988776;28;20221;-76
2022/01/26 05:35:37;;;;;;;41.53;20.30;;;-2.60;99.90;;;;;;4970738;28;20221;-76
2022/01/26 05:38:03;;;;;;;37.43;19.50;;;-2.60;99.90;;;;;;4986649;28;20651;-76
2022/01/26 05:40:29;;;;;;;41.30;21.63;;;-2.50;99.90;;;;;;4986845;28;20722;-76
2022/01/26 05:42:55;;;;;;;39.83;21.47;;;-2.50;99.90;;;;;;4987954;28;20424;-76
2022/01/26 05:45:35;;;;;;;37.23;19.40;;;-2.40;99.90;;;;;;4987925;28;20440;-76
2022/01/26 05:48:08;;;;;;;40.33;20.52;;;-2.30;99.90;;;;;;4988093;28;20443;-76
2022/01/26 05:50:34;;;;;;;44.22;19.60;;;-2.20;99.90;;;;;;4988073;28;20245;-75
2022/01/26 05:53:00;;;;;;;42.30;19.80;;;-2.20;99.90;;;;;;4986205;28;20205;-75
2022/01/26 05:55:26;;;;;;;45.90;21.30;;;-2.30;99.90;;;;;;4987763;28;20230;-76
2022/01/26 05:57:52;;;;;;;41.97;20.23;;;-2.30;99.90;;;;;;4987728;28;20253;-76
2022/01/26 06:00:17;;;;;;;46.70;20.77;;;-2.30;99.90;;;;;;4986390;28;20178;-75
2022/01/26 06:02:44;;;;;;;37.73;19.70;;;-2.30;99.90;;;;;;4987835;28;20190;-75
2022/01/26 06:05:10;;;;;;;41.35;20.55;;;-2.30;99.90;;;;;;4987815;28;20186;-75
2022/01/26 06:07:36;;;;;;;51.33;20.43;;;-2.30;99.90;;;;;;4986277;28;20190;-76
2022/01/26 06:10:02;;;;;;;48.40;20.60;;;-2.20;99.90;;;;;;4987771;28;20205;-76
2022/01/26 06:12:29;;;;;;;44.20;21.95;;;-2.20;99.90;;;;;;4986273;28;20509;-75
2022/01/26 06:14:55;;;;;;;58.42;20.52;;;-2.10;99.90;;;;;;4985942;28;20643;-76
2022/01/26 06:17:21;;;;;;;64.13;23.90;;;-2.10;99.90;;;;;;4969762;28;20205;-75
2022/01/26 06:19:46;;;;;;;46.43;20.00;;;-2.10;99.90;;;;;;4986148;28;20240;-75
2022/01/26 06:22:12;;;;;;;55.07;19.10;;;-2.10;99.90;;;;;;4987697;28;20192;-75
2022/01/26 06:24:38;;;;;;;43.97;18.50;;;-2.00;99.90;;;;;;4988411;28;20628;-76
2022/01/26 06:27:04;;;;;;;111.17;20.50;;;-2.00;99.90;;;;;;4987561;28;20746;-76
2022/01/26 06:29:30;;;;;;;68.50;19.60;;;-1.90;99.90;;;;;;4988086;28;20189;-76
2022/01/26 06:31:57;;;;;;;87.78;21.75;;;-1.90;99.90;;;;;;4990166;28;20188;-76
2022/01/26 06:34:22;;;;;;;42.63;19.15;;;-1.80;99.90;;;;;;4989894;28;20225;-76
2022/01/26 06:36:48;;;;;;;241.30;25.30;;;-1.80;99.90;;;;;;4989744;28;20213;-76
2022/01/26 06:39:14;;;;;;;162.93;26.13;;;-1.90;99.90;;;;;;4991325;28;20664;-76
2022/01/26 06:41:47;;;;;;;91.72;17.55;;;-2.00;99.90;;;;;;4989631;28;20189;-76
2022/01/26 06:44:20;;;;;;;71.97;18.45;;;-2.00;99.90;;;;;;4991366;28;20189;-76
2022/01/26 06:49:30;;;;;;;90.60;20.92;;;-1.90;99.90;;;;;;4991418;28;20192;-76
2022/01/26 06:51:56;;;;;;;56.90;19.40;;;-2.00;99.90;;;;;;4991043;28;20197;-76
2022/01/26 06:54:22;;;;;;;90.28;19.80;;;-1.90;99.90;;;;;;4991210;28;20357;-76
2022/01/26 06:56:48;;;;;;;99.32;22.27;;;-1.90;99.90;;;;;;4990983;28;20225;-76
2022/01/26 06:59:14;;;;;;;229.30;22.02;;;-1.90;99.90;;;;;;4991099;28;20247;-76
2022/01/26 07:01:40;;;;;;;105.10;17.27;;;-1.90;99.90;;;;;;4991127;28;20182;-76
2022/01/26 07:04:07;;;;;;;41.58;17.70;;;-1.90;99.90;;;;;;4991312;28;20451;-76
2022/01/26 07:06:32;;;;;;;71.85;18.83;;;-1.90;99.90;;;;;;4990919;28;20252;-77
2022/01/26 07:08:58;;;;;;;84.07;19.17;;;-1.90;99.90;;;;;;4989516;28;20253;-77
2022/01/26 07:11:24;;;;;;;70.53;18.93;;;-1.70;99.90;;;;;;4989893;28;20189;-75
2022/01/26 07:13:52;;;;;;;89.37;21.20;;;-1.70;99.90;;;;;;4991254;28;20187;-77
2022/01/26 07:21:49;;;;;;;65.13;18.80;;;-1.60;99.90;;;;;;4991563;28;20186;-76
2022/01/26 07:24:15;;;;;;;46.73;18.43;;;-1.80;99.90;;;;;;4991249;28;20187;-76
2022/01/26 07:26:42;;;;;;;73.43;21.33;;;-1.80;99.90;;;;;;4989846;28;20218;-76
2022/01/26 07:29:11;;;;;;;57.30;18.17;;;-1.80;99.90;;;;;;4957532;28;20189;-76
2022/01/26 07:31:42;;;;;;;53.20;19.85;;;-1.70;99.90;;;;;;4991358;28;20174;-76
2022/01/26 07:34:10;;;;;;;50.83;20.13;;;-1.70;99.90;;;;;;4991234;28;20213;-76
2022/01/26 07:36:36;;;;;;;50.95;17.50;;;-1.60;99.90;;;;;;4989617;28;20233;-76
2022/01/26 07:39:07;;;;;;;93.47;31.10;;;-1.60;99.90;;;;;;4991046;28;20205;-76
2022/01/26 07:41:34;;;;;;;38.65;18.52;;;-1.60;99.90;;;;;;4990240;28;20198;-76
2022/01/26 07:44:00;;;;;;;46.55;17.15;;;-1.50;99.90;;;;;;4990961;28;20173;-76
2022/01/26 07:46:27;;;;;;;39.58;16.63;;;-1.50;99.90;;;;;;4989251;28;20209;-76
2022/01/26 07:48:53;;;;;;;51.88;20.10;;;-1.70;99.90;;;;;;4988848;28;20182;-76
2022/01/26 07:51:19;;;;;;;56.58;18.48;;;-1.70;99.90;;;;;;4988419;28;20290;-76
2022/01/26 07:53:45;;;;;;;41.93;17.27;;;-1.80;99.90;;;;;;4988542;28;20233;-76
2022/01/26 07:56:11;;;;;;;89.70;21.40;;;-1.80;99.90;;;;;;4956127;28;20218;-76
2022/01/26 07:58:36;;;;;;;64.70;18.67;;;-1.80;99.90;;;;;;4989934;28;20445;-76
2022/01/26 08:01:02;;;;;;;93.80;25.10;;;-1.90;99.90;;;;;;4972197;28;20209;-75
2022/01/26 08:03:33;;;;;;;146.63;44.92;;;-1.80;99.90;;;;;;4989620;28;20185;-76
2022/01/26 08:06:05;;;;;;;48.70;21.58;;;-1.70;99.90;;;;;;4989931;28;20755;-76
2022/01/26 08:08:31;;;;;;;64.93;20.90;;;-1.60;99.90;;;;;;4989616;28;20213;-76
2022/01/26 08:10:58;;;;;;;41.20;18.87;;;-1.50;99.90;;;;;;4988203;28;20698;-76
2022/01/26 08:13:24;;;;;;;81.75;21.90;;;-1.50;99.90;;;;;;4989519;28;20417;-76
2022/01/26 08:15:50;;;;;;;46.67;20.27;;;-1.40;99.90;;;;;;4989457;28;20213;-76
2022/01/26 08:18:16;;;;;;;63.00;19.13;;;-1.40;99.90;;;;;;4989609;28;20181;-77
2022/01/26 08:20:41;;;;;;;74.40;21.70;;;-1.40;99.90;;;;;;4990142;28;20668;-76
2022/01/26 08:23:08;;;;;;;52.67;20.70;;;-1.40;99.90;;;;;;4989652;28;20643;-76
2022/01/26 08:25:34;;;;;;;115.43;22.95;;;-1.40;99.90;;;;;;4988173;28;20271;-76
2022/01/26 08:28:09;;;;;;;54.22;21.45;;;-1.50;99.90;;;;;;4989422;28;20189;-77
2022/01/26 08:30:37;;;;;;;52.35;20.48;;;-1.50;99.90;;;;;;4972790;28;20216;-76
2022/01/26 08:33:06;;;;;;;74.47;20.67;;;-1.50;99.90;;;;;;4989265;28;20188;-76
2022/01/26 08:35:33;;;;;;;97.22;23.35;;;-1.50;99.90;;;;;;4971671;28;20217;-76
2022/01/26 08:37:59;;;;;;;58.25;20.08;;;-1.50;99.90;;;;;;4987869;28;20556;-76
2022/01/26 08:40:25;;;;;;;71.73;23.40;;;-1.40;99.90;;;;;;4989205;28;20193;-76
2022/01/26 08:42:52;;;;;;;87.32;23.00;;;-1.50;99.90;;;;;;4987546;28;20213;-76
2022/01/26 08:45:17;;;;;;;57.92;22.38;;;-1.40;99.90;;;;;;4987691;28;20217;-76
2022/01/26 08:47:43;;;;;;;67.07;22.57;;;-1.40;99.90;;;;;;4989132;28;20187;-76
2022/01/26 08:50:09;;;;;;;347.83;31.33;;;-1.40;99.90;;;;;;4989066;28;20189;-76
2022/01/26 08:52:35;;;;;;;78.05;21.70;;;-1.40;99.90;;;;;;4989105;28;20199;-76
2022/01/26 08:55:03;;;;;;;59.17;20.53;;;-1.40;99.90;;;;;;4988783;28;20213;-76
2022/01/26 08:57:28;;;;;;;85.38;24.05;;;-1.30;99.90;;;;;;4988606;28;20437;-76
2022/01/26 08:59:54;;;;;;;60.27;22.33;;;-1.20;99.90;;;;;;4988905;28;20181;-76
2022/01/26 09:02:19;;;;;;;75.60;23.20;;;-1.20;99.90;;;;;;4988656;28;20219;-76
2022/01/26 09:04:45;;;;;;;120.57;24.63;;;-1.10;99.90;;;;;;4987270;28;20260;-76
2022/01/26 09:07:15;;;;;;;83.83;24.90;;;-1.20;99.90;;;;;;4988532;28;20216;-76
2022/01/26 09:09:44;;;;;;;61.08;22.85;;;-1.20;99.90;;;;;;4987019;28;20436;-76
2022/01/26 09:12:12;;;;;;;71.60;22.85;;;-1.10;99.90;;;;;;4988646;28;20179;-76
2022/01/26 09:14:38;;;;;;;101.57;25.70;;;-1.10;99.90;;;;;;4986943;28;20211;-76
2022/01/26 09:17:05;;;;;;;99.53;24.30;;;-1.10;99.90;;;;;;4988441;28;20309;-76
2022/01/26 09:19:32;;;;;;;173.20;26.55;;;-1.10;99.90;;;;;;4988548;28;20183;-76
2022/01/26 09:22:04;;;;;;;116.22;39.95;;;-1.10;99.90;;;;;;4988522;28;20268;-76
2022/01/26 09:24:32;;;;;;;82.55;29.85;;;-1.00;99.90;;;;;;4988779;28;20217;-76
2022/01/26 09:26:58;;;;;;;130.70;45.08;;;-0.90;99.90;;;;;;4986851;28;20214;-76
2022/01/26 09:29:24;;;;;;;65.90;26.07;;;-0.90;99.90;;;;;;4988377;28;20192;-76
2022/01/26 09:31:50;;;;;;;206.45;63.13;;;-0.80;99.90;;;;;;4988816;28;20424;-76
2022/01/26 09:34:18;;;;;;;64.77;25.17;;;-0.70;99.90;;;;;;4988566;28;20552;-76
2022/01/26 09:36:45;;;;;;;54.60;21.73;;;-0.70;99.90;;;;;;4986877;28;20882;-76
2022/01/26 09:39:13;;;;;;;53.90;22.00;;;-0.70;99.90;;;;;;4988303;28;20562;-76
2022/01/26 09:41:40;;;;;;;48.28;20.98;;;-0.80;99.90;;;;;;4987000;28;20194;-75
2022/01/26 09:44:06;;;;;;;69.95;23.40;;;-0.70;99.90;;;;;;4988301;28;20583;-76
2022/01/26 09:46:33;;;;;;;51.83;22.92;;;-0.80;99.90;;;;;;4986963;28;20214;-76
2022/01/26 09:49:01;;;;;;;52.78;23.38;;;-0.70;99.90;;;;;;4988156;28;20186;-76
2022/01/26 09:51:27;;;;;;;47.50;20.20;;;-0.70;99.90;;;;;;4988392;28;20486;-76
2022/01/26 09:54:04;;;;;;;65.55;22.90;;;-0.80;99.90;;;;;;4988028;28;20218;-75
2022/01/26 09:56:30;;;;;;;81.57;24.15;;;-0.70;99.90;;;;;;4988224;28;20614;-76
2022/01/26 09:58:57;;;;;;;62.63;23.73;;;-0.80;99.90;;;;;;4987801;28;20273;-76
2022/01/26 10:01:23;;;;;;;66.35;23.80;;;-0.90;99.90;;;;;;4987756;28;20189;-76
2022/01/26 10:03:51;;;;;;;54.22;23.70;;;-0.90;99.90;;;;;;4987439;28;20174;-76
2022/01/26 10:06:28;;;;;;;70.70;23.38;;;-0.90;99.90;;;;;;4987685;28;20217;-76
2022/01/26 10:09:13;;;;;;;83.47;25.15;;;-0.90;99.90;;;;;;4987583;28;20244;-76
2022/01/26 10:15:28;;;;;;;73.13;22.83;;;-0.90;99.90;;;;;;4987804;28;20208;-76
2022/01/26 10:17:29;;;;;;;54.92;22.25;;;-0.90;99.90;;;;;;4987535;28;20222;-76
2022/01/26 10:19:59;;;;;;;63.85;24.75;;;-0.80;99.90;;;;;;4988129;28;20180;-77
2022/01/26 10:22:31;;;;;;;56.10;24.10;;;-0.80;99.90;;;;;;4988344;28;20240;-76
2022/01/26 10:25:12;;;;;;;54.55;23.30;;;-0.80;99.90;;;;;;4987136;28;20746;-78
2022/01/26 10:27:46;;;;;;;42.05;21.50;;;-0.60;99.90;;;;;;4988467;28;20707;-77
2022/01/26 10:30:15;;;;;;;49.35;23.25;;;-0.40;99.90;;;;;;4988355;28;20182;-77
2022/01/26 10:32:42;;;;;;;45.03;21.25;;;-0.30;99.90;;;;;;4988081;28;20630;-76
2022/01/26 10:35:09;;;;;;;50.42;24.63;;;-0.10;99.90;;;;;;4986336;28;20561;-76
2022/01/26 10:37:35;;;;;;;50.85;23.20;;;-0.10;99.90;;;;;;4986669;28;20185;-77
2022/01/26 10:40:15;;;;;;;43.83;21.55;;;0.00;99.90;;;;;;4969731;28;20185;-75
2022/01/26 10:42:57;;;;;;;41.78;21.38;;;0.00;99.90;;;;;;4987340;28;20682;-75
2022/01/26 10:45:33;;;;;;;42.42;21.85;;;0.10;99.90;;;;;;4987483;28;20206;-76
2022/01/26 10:48:18;;;;;;;45.40;23.38;;;0.30;99.90;;;;;;4987020;28;20740;-77
2022/01/26 10:50:58;;;;;;;52.42;21.05;;;0.50;99.90;;;;;;4987384;28;20264;-75
2022/01/26 10:53:26;;;;;;;54.38;26.10;;;0.60;99.90;;;;;;4987557;28;20201;-77
2022/01/26 10:55:52;;;;;;;45.08;24.40;;;0.80;99.90;;;;;;4986351;28;20262;-75
2022/01/26 10:58:18;;;;;;;52.00;27.63;;;0.90;99.90;;;;;;4987982;28;20249;-76
2022/01/26 11:00:44;;;;;;;43.83;21.55;;;1.10;99.90;;;;;;4988162;28;20607;-77
2022/01/26 11:03:10;;;;;;;42.60;22.17;;;1.20;99.90;;;;;;4987702;28;20188;-75
2022/01/26 11:05:37;;;;;;;43.50;22.05;;;1.40;99.90;;;;;;4986494;28;20325;-76
2022/01/26 11:08:04;;;;;;;44.67;21.48;;;1.70;99.90;;;;;;4987940;28;20249;-74
2022/01/26 11:10:36;;;;;;;45.67;24.08;;;2.10;99.90;;;;;;4988174;28;20193;-76
2022/01/26 11:13:03;;;;;;;46.95;23.45;;;2.50;99.90;;;;;;4986176;28;20224;-75
2022/01/26 11:15:30;;;;;;;44.67;22.15;;;2.80;99.90;;;;;;4987848;28;20218;-75
2022/01/26 11:18:06;;;;;;;48.90;24.88;;;2.70;99.90;;;;;;4990428;28;20191;-75
2022/01/26 11:20:49;;;;;;;45.20;23.75;;;2.50;99.90;;;;;;4991566;28;20170;-76
2022/01/26 11:23:32;;;;;;;127.28;41.90;;;2.20;99.90;;;;;;4990120;28;20195;-76
2022/01/26 11:25:57;;;;;;;57.10;27.33;;;2.20;99.90;;;;;;4991248;28;20206;-76
2022/01/26 11:28:26;;;;;;;45.67;24.50;;;2.10;99.90;;;;;;4991143;28;20196;-76
2022/01/26 11:30:57;;;;;;;46.92;23.27;;;1.90;99.90;;;;;;4989515;28;20188;-76
2022/01/26 11:33:27;;;;;;;50.92;25.17;;;2.00;99.90;;;;;;4991092;28;20240;-77
2022/01/26 11:35:54;;;;;;;53.72;24.25;;;1.90;99.90;;;;;;4990784;28;20375;-77
2022/01/26 11:46:51;;;;;;;51.15;25.70;;;1.30;99.90;;;;;;4990606;28;20771;-77
2022/01/26 11:49:31;;;;;;;60.58;26.67;;;1.10;99.90;;;;;;4991592;28;20194;-76
2022/01/26 11:51:57;;;;;;;66.65;29.08;;;1.00;99.90;;;;;;4998766;28;20202;-75
2022/01/26 11:54:28;;;;;;;60.23;28.80;;;1.00;99.90;;;;;;4990978;28;20198;-77
2022/01/26 11:57:06;;;;;;;62.28;28.75;;;1.00;99.90;;;;;;4990535;28;20686;-75
2022/01/26 11:59:35;;;;;;;60.42;29.48;;;0.80;99.90;;;;;;4990281;28;20682;-74
2022/01/26 12:02:06;;;;;;;65.85;29.38;;;0.80;99.90;;;;;;4993573;28;20185;-77
2022/01/26 12:04:34;;;;;;;74.93;32.70;;;0.60;99.90;;;;;;4990335;28;20198;-77
2022/01/26 12:07:10;;;;;;;62.72;29.55;;;0.60;99.90;;;;;;4990056;28;20264;-77
2022/01/26 12:09:39;;;;;;;72.05;30.55;;;0.60;99.90;;;;;;4990417;28;20530;-77
2022/01/26 12:12:05;;;;;;;59.75;28.90;;;0.70;99.90;;;;;;4988130;28;20279;-77
2022/01/26 12:14:33;;;;;;;61.80;29.00;;;0.60;99.90;;;;;;4989947;28;20179;-76
2022/01/26 12:17:03;;;;;;;78.88;32.08;;;0.60;99.90;;;;;;4989824;28;20623;-77
2022/01/26 12:19:48;;;;;;;62.53;29.58;;;0.50;99.90;;;;;;4989794;28;20209;-76
2022/01/26 12:36:32;;;;;;;70.43;31.38;;;0.60;99.90;;;;;;4989037;28;20267;-76
2022/01/26 12:39:00;;;;;;;59.92;28.92;;;0.70;99.90;;;;;;4974543;28;20694;-76
2022/01/26 12:41:34;;;;;;;61.97;28.73;;;0.70;99.90;;;;;;4988819;28;20660;-76
2022/01/26 12:44:09;;;;;;;74.80;34.03;;;0.70;99.90;;;;;;4987574;28;20187;-76
2022/01/26 12:46:36;;;;;;;59.40;29.17;;;0.70;99.90;;;;;;4988083;28;20679;-77
2022/01/26 12:49:19;;;;;;;56.85;27.63;;;0.70;99.90;;;;;;4987844;28;20220;-77
2022/01/26 12:51:54;;;;;;;59.28;28.13;;;0.70;99.90;;;;;;4989315;28;20218;-77
2022/01/26 12:54:20;;;;;;;55.42;28.90;;;0.70;99.90;;;;;;4989377;28;20177;-77
2022/01/26 12:56:46;;;;;;;57.95;30.08;;;0.80;99.90;;;;;;4989351;28;20199;-77
2022/01/26 12:59:20;;;;;;;59.93;27.67;;;0.70;99.90;;;;;;4988139;28;20289;-76
2022/01/26 13:01:46;;;;;;;48.42;26.85;;;0.70;99.90;;;;;;4989627;28;20314;-77
2022/01/26 13:04:14;;;;;;;48.28;24.80;;;0.80;99.90;;;;;;4989531;28;20180;-77
2022/01/26 13:06:45;;;;;;;47.40;24.75;;;0.80;99.90;;;;;;4987486;28;20714;-77
2022/01/26 13:09:25;;;;;;;45.75;23.85;;;0.80;99.90;;;;;;4988559;28;20311;-77
2022/01/26 13:11:52;;;;;;;47.63;23.55;;;0.80;99.90;;;;;;4988680;28;20182;-77
2022/01/26 13:14:27;;;;;;;54.03;25.90;;;0.80;99.90;;;;;;4988245;28;20652;-76
2022/01/26 13:22:49;;;;;;;45.90;24.10;;;0.80;99.90;;;;;;4988840;28;20194;-77
2022/01/26 13:37:15;;;;;;;56.67;25.33;;;0.80;99.90;;;;;;4989228;28;20220;-77
2022/01/26 13:40:38;;;;;;;44.25;23.70;;;0.80;99.90;;;;;;4987067;28;20189;-77
2022/01/26 13:48:03;;;;;;;51.03;25.65;;;0.80;99.90;;;;;;4988273;28;20749;-76
2022/01/26 13:53:22;;;;;;;47.25;24.13;;;0.70;99.90;;;;;;4967876;28;20213;-76
2022/01/26 13:56:08;;;;;;;51.33;27.38;;;0.70;99.90;;;;;;4988010;28;20226;-76
2022/01/26 14:01:20;;;;;;;48.15;25.48;;;0.70;99.90;;;;;;4987839;28;20197;-77
2022/01/26 14:03:50;;;;;;;56.95;27.25;;;0.70;99.90;;;;;;4987894;28;20183;-76
2022/01/26 14:06:15;;;;;;;52.53;27.70;;;0.80;99.90;;;;;;4970267;28;20300;-76
2022/01/26 14:08:41;;;;;;;51.67;26.30;;;0.80;99.90;;;;;;4987889;28;20226;-76
2022/01/26 14:11:08;;;;;;;55.40;26.90;;;0.80;99.90;;;;;;4987540;28;20211;-76
2022/01/26 14:13:35;;;;;;;62.35;28.50;;;0.70;99.90;;;;;;4987569;28;20425;-76
2022/01/26 14:16:04;;;;;;;60.53;28.63;;;0.60;99.90;;;;;;4987420;28;20215;-76
2022/01/26 14:19:24;;;;;;;52.63;27.25;;;0.60;99.90;;;;;;4987377;28;20204;-76
2022/01/26 14:26:20;;;;;;;55.93;28.13;;;0.70;99.90;;;;;;4985682;28;20214;-76
2022/01/26 14:28:46;;;;;;;58.05;27.13;;;0.90;99.90;;;;;;4987443;28;20460;-76
2022/01/26 15:00:10;;;;;;;48.25;25.25;;;0.50;99.90;;;;;;4991311;28;20173;-75
2022/01/26 16:07:46;;;;;;;94.30;21.30;;;0.10;99.90;;;;;;4990889;28;20203;-76
2022/01/26 17:48:13;;;;;;;114.47;22.40;;;-0.20;99.90;;;;;;4989018;28;20216;-73
2022/01/26 18:33:10;;;;;;;108.07;24.05;;;-0.30;99.90;;;;;;4992533;28;20670;-74
2022/01/26 18:49:23;;;;;;;94.50;22.15;;;-0.30;99.90;;;;;;4992270;28;20734;-74
2022/01/26 18:51:43;;;;;;;165.68;25.83;;;-0.30;99.90;;;;;;4990534;28;20193;-74
2022/01/26 18:54:11;;;;;;;119.85;24.88;;;-0.30;99.90;;;;;;4992146;28;20190;-74
2022/01/26 18:56:39;;;;;;;90.28;21.42;;;-0.20;99.90;;;;;;4991955;28;20218;-74
2022/01/26 18:59:05;;;;;;;99.80;23.85;;;-0.20;99.90;;;;;;4990351;28;20269;-73
2022/01/26 19:01:32;;;;;;;72.78;22.27;;;-0.20;99.90;;;;;;4991802;28;20190;-73
2022/01/26 19:03:57;;;;;;;164.15;24.60;;;-0.20;99.90;;;;;;4991825;28;20257;-73
2022/01/26 19:06:23;;;;;;;97.27;21.60;;;-0.30;99.90;;;;;;4991645;28;20222;-74
2022/01/26 19:08:48;;;;;;;131.17;23.33;;;-0.30;99.90;;;;;;4991922;28;20568;-73
2022/01/26 19:11:20;;;;;;;66.43;20.10;;;-0.20;99.90;;;;;;4991752;28;20233;-73
2022/01/26 19:13:47;;;;;;;82.28;21.42;;;-0.20;99.90;;;;;;4991438;28;20182;-74
2022/01/26 19:19:36;;;;;;;78.43;23.55;;;-0.10;99.90;;;;;;4991609;28;20189;-73
2022/01/26 19:22:03;;;;;;;112.20;26.15;;;-0.10;99.90;;;;;;4990273;28;20194;-74
2022/01/26 19:27:26;;;;;;;77.60;22.73;;;-0.10;99.90;;;;;;4991213;28;20256;-73
2022/01/26 19:44:08;;;;;;;102.35;22.83;;;0.00;99.90;;;;;;4989554;28;20184;-74
2022/01/26 19:46:27;;;;;;;77.22;21.13;;;0.00;99.90;;;;;;4985953;28;20218;-74